sensor_id;sensor_type;location;lat;lon;timestamp;P1;durP1;ratioP1;P2;durP2;ratioP2
19623;SDS011;9959;49.798;9.928;2022-11-15T00:01:07;12.25;;;6.22;;
19623;SDS011;9959;49.798;9.928;2022-11-15T00:03:35;11.55;;;5.93;;
19623;SDS011;9959;49.798;9.928;2022-11-15T00:06:03;12.45;;;6.63;;
19623;SDS011;9959;49.798;9.928;2022-11-15T00:08:32;12.77;;;5.95;;
19623;SDS011;9959;49.798;9.928;2022-11-15T00:11:02;11.65;;;6.40;;
19623;SDS011;9959;49.798;9.928;2022-11-15T00:13:30;11.07;;;6.15;;
19623;SDS011;9959;49.798;9.928;2022-11-15T00:15:59;9.65;;;5.88;;
19623;SDS011;9959;49.798;9.928;2022-11-15T00:18:29;10.85;;;5.57;;
19623;SDS011;9959;49.798;9.928;2022-11-15T00:21:02;13.25;;;6.50;;
19623;SDS011;9959;49.798;9.928;2022-11-15T00:23:32;14.20;;;6.60;;
19623;SDS011;9959;49.798;9.928;2022-11-15T00:26:02;13.93;;;6.38;;
19623;SDS011;9959;49.798;9.928;2022-11-15T00:28:31;12.60;;;6.18;;
19623;SDS011;9959;49.798;9.928;2022-11-15T00:31:00;12.60;;;5.75;;
19623;SDS011;9959;49.798;9.928;2022-11-15T00:33:29;12.77;;;6.93;;
19623;SDS011;9959;49.798;9.928;2022-11-15T00:36:00;14.98;;;7.38;;
19623;SDS011;9959;49.798;9.928;2022-11-15T00:38:31;13.35;;;6.55;;
19623;SDS011;9959;49.798;9.928;2022-11-15T00:41:00;11.07;;;6.47;;
19623;SDS011;9959;49.798;9.928;2022-11-15T00:43:34;12.40;;;6.13;;
19623;SDS011;9959;49.798;9.928;2022-11-15T00:46:02;11.73;;;6.53;;
19623;SDS011;9959;49.798;9.928;2022-11-15T00:48:32;10.65;;;7.07;;
19623;SDS011;9959;49.798;9.928;2022-11-15T00:51:00;18.42;;;7.75;;
19623;SDS011;9959;49.798;9.928;2022-11-15T00:53:28;13.38;;;7.60;;
19623;SDS011;9959;49.798;9.928;2022-11-15T00:55:57;16.08;;;7.88;;
19623;SDS011;9959;49.798;9.928;2022-11-15T00:58:26;19.50;;;8.48;;
19623;SDS011;9959;49.798;9.928;2022-11-15T01:00:54;16.95;;;7.28;;
19623;SDS011;9959;49.798;9.928;2022-11-15T01:03:22;16.38;;;8.02;;
19623;SDS011;9959;49.798;9.928;2022-11-15T01:05:50;16.92;;;8.20;;
19623;SDS011;9959;49.798;9.928;2022-11-15T01:08:18;17.10;;;7.88;;
19623;SDS011;9959;49.798;9.928;2022-11-15T01:10:46;15.77;;;8.68;;
19623;SDS011;9959;49.798;9.928;2022-11-15T01:13:14;15.68;;;7.95;;
19623;SDS011;9959;49.798;9.928;2022-11-15T01:15:43;14.75;;;7.53;;
19623;SDS011;9959;49.798;9.928;2022-11-15T01:18:12;16.00;;;7.32;;
19623;SDS011;9959;49.798;9.928;2022-11-15T01:20:40;18.58;;;7.85;;
19623;SDS011;9959;49.798;9.928;2022-11-15T01:23:09;19.13;;;7.57;;
19623;SDS011;9959;49.798;9.928;2022-11-15T01:25:37;14.77;;;7.47;;
19623;SDS011;9959;49.798;9.928;2022-11-15T01:28:05;16.08;;;7.20;;
19623;SDS011;9959;49.798;9.928;2022-11-15T01:30:35;14.95;;;7.50;;
19623;SDS011;9959;49.798;9.928;2022-11-15T01:33:04;14.68;;;7.65;;
19623;SDS011;9959;49.798;9.928;2022-11-15T01:35:32;16.73;;;7.25;;
19623;SDS011;9959;49.798;9.928;2022-11-15T01:38:00;16.65;;;7.78;;
19623;SDS011;9959;49.798;9.928;2022-11-15T01:40:28;19.05;;;7.15;;
19623;SDS011;9959;49.798;9.928;2022-11-15T01:42:56;21.70;;;7.55;;
19623;SDS011;9959;49.798;9.928;2022-11-15T01:45:24;13.80;;;7.05;;
19623;SDS011;9959;49.798;9.928;2022-11-15T01:47:53;16.65;;;7.07;;
19623;SDS011;9959;49.798;9.928;2022-11-15T01:50:25;15.15;;;6.68;;
19623;SDS011;9959;49.798;9.928;2022-11-15T01:52:56;14.80;;;7.05;;
19623;SDS011;9959;49.798;9.928;2022-11-15T01:55:25;14.68;;;6.68;;
19623;SDS011;9959;49.798;9.928;2022-11-15T01:57:56;13.00;;;6.80;;
19623;SDS011;9959;49.798;9.928;2022-11-15T02:00:27;14.65;;;7.25;;
19623;SDS011;9959;49.798;9.928;2022-11-15T02:02:56;16.30;;;7.70;;
19623;SDS011;9959;49.798;9.928;2022-11-15T02:05:26;14.55;;;6.85;;
19623;SDS011;9959;49.798;9.928;2022-11-15T02:07:54;15.30;;;6.38;;
19623;SDS011;9959;49.798;9.928;2022-11-15T02:10:23;12.63;;;6.55;;
19623;SDS011;9959;49.798;9.928;2022-11-15T02:12:51;12.85;;;7.43;;
19623;SDS011;9959;49.798;9.928;2022-11-15T02:15:21;13.10;;;7.25;;
19623;SDS011;9959;49.798;9.928;2022-11-15T02:17:56;16.73;;;7.50;;
19623;SDS011;9959;49.798;9.928;2022-11-15T02:20:40;17.50;;;7.60;;
19623;SDS011;9959;49.798;9.928;2022-11-15T02:26:30;10.02;;;6.13;;
19623;SDS011;9959;49.798;9.928;2022-11-15T02:29:21;13.45;;;7.00;;
19623;SDS011;9959;49.798;9.928;2022-11-15T02:31:58;15.02;;;6.55;;
19623;SDS011;9959;49.798;9.928;2022-11-15T02:34:34;15.02;;;7.55;;
19623;SDS011;9959;49.798;9.928;2022-11-15T02:37:07;13.30;;;7.00;;
19623;SDS011;9959;49.798;9.928;2022-11-15T02:39:44;15.75;;;6.93;;
19623;SDS011;9959;49.798;9.928;2022-11-15T02:42:18;15.02;;;7.30;;
19623;SDS011;9959;49.798;9.928;2022-11-15T02:45:07;15.10;;;7.00;;
19623;SDS011;9959;49.798;9.928;2022-11-15T02:47:41;14.10;;;7.38;;
19623;SDS011;9959;49.798;9.928;2022-11-15T02:50:12;12.68;;;7.60;;
19623;SDS011;9959;49.798;9.928;2022-11-15T02:52:44;15.40;;;7.82;;
19623;SDS011;9959;49.798;9.928;2022-11-15T02:55:26;12.63;;;7.22;;
19623;SDS011;9959;49.798;9.928;2022-11-15T02:58:03;12.50;;;7.45;;
19623;SDS011;9959;49.798;9.928;2022-11-15T03:00:54;14.75;;;8.57;;
19623;SDS011;9959;49.798;9.928;2022-11-15T03:03:33;16.25;;;7.35;;
19623;SDS011;9959;49.798;9.928;2022-11-15T03:06:15;13.27;;;7.43;;
19623;SDS011;9959;49.798;9.928;2022-11-15T03:08:54;13.48;;;7.60;;
19623;SDS011;9959;49.798;9.928;2022-11-15T03:11:31;16.45;;;7.63;;
19623;SDS011;9959;49.798;9.928;2022-11-15T03:14:06;20.23;;;8.52;;
19623;SDS011;9959;49.798;9.928;2022-11-15T03:16:42;13.77;;;7.95;;
19623;SDS011;9959;49.798;9.928;2022-11-15T03:19:19;14.45;;;7.40;;
19623;SDS011;9959;49.798;9.928;2022-11-15T03:21:54;18.85;;;8.25;;
19623;SDS011;9959;49.798;9.928;2022-11-15T03:24:25;15.90;;;8.35;;
19623;SDS011;9959;49.798;9.928;2022-11-15T03:26:56;14.63;;;7.63;;
19623;SDS011;9959;49.798;9.928;2022-11-15T03:29:29;14.75;;;7.68;;
19623;SDS011;9959;49.798;9.928;2022-11-15T03:32:03;16.35;;;8.68;;
19623;SDS011;9959;49.798;9.928;2022-11-15T03:34:37;16.48;;;7.85;;
19623;SDS011;9959;49.798;9.928;2022-11-15T03:37:09;20.67;;;8.48;;
19623;SDS011;9959;49.798;9.928;2022-11-15T03:39:40;19.42;;;8.32;;
19623;SDS011;9959;49.798;9.928;2022-11-15T03:42:12;17.42;;;8.55;;
19623;SDS011;9959;49.798;9.928;2022-11-15T03:44:50;18.45;;;8.52;;
19623;SDS011;9959;49.798;9.928;2022-11-15T03:47:23;17.35;;;8.73;;
19623;SDS011;9959;49.798;9.928;2022-11-15T03:49:57;21.70;;;9.07;;
19623;SDS011;9959;49.798;9.928;2022-11-15T03:52:29;23.38;;;9.48;;
19623;SDS011;9959;49.798;9.928;2022-11-15T03:54:59;18.63;;;9.70;;
19623;SDS011;9959;49.798;9.928;2022-11-15T03:57:29;20.17;;;9.60;;
19623;SDS011;9959;49.798;9.928;2022-11-15T03:59:58;21.40;;;10.13;;
19623;SDS011;9959;49.798;9.928;2022-11-15T04:02:25;20.92;;;10.85;;
19623;SDS011;9959;49.798;9.928;2022-11-15T04:04:54;20.77;;;9.38;;
19623;SDS011;9959;49.798;9.928;2022-11-15T04:07:23;26.83;;;10.20;;
19623;SDS011;9959;49.798;9.928;2022-11-15T04:09:52;19.55;;;10.20;;
19623;SDS011;9959;49.798;9.928;2022-11-15T04:12:33;18.75;;;9.65;;
19623;SDS011;9959;49.798;9.928;2022-11-15T04:15:03;18.98;;;10.05;;
19623;SDS011;9959;49.798;9.928;2022-11-15T04:17:36;21.77;;;9.77;;
19623;SDS011;9959;49.798;9.928;2022-11-15T04:20:07;24.73;;;9.73;;
19623;SDS011;9959;49.798;9.928;2022-11-15T04:22:57;20.77;;;10.07;;
19623;SDS011;9959;49.798;9.928;2022-11-15T04:25:43;20.23;;;9.95;;
19623;SDS011;9959;49.798;9.928;2022-11-15T04:28:12;22.65;;;10.05;;
19623;SDS011;9959;49.798;9.928;2022-11-15T04:30:40;22.05;;;10.10;;
19623;SDS011;9959;49.798;9.928;2022-11-15T04:33:08;23.58;;;9.70;;
19623;SDS011;9959;49.798;9.928;2022-11-15T04:35:36;21.13;;;9.77;;
19623;SDS011;9959;49.798;9.928;2022-11-15T04:38:06;16.50;;;8.55;;
19623;SDS011;9959;49.798;9.928;2022-11-15T04:40:34;19.85;;;9.80;;
19623;SDS011;9959;49.798;9.928;2022-11-15T04:43:03;18.23;;;8.75;;
19623;SDS011;9959;49.798;9.928;2022-11-15T04:45:31;18.38;;;8.77;;
19623;SDS011;9959;49.798;9.928;2022-11-15T04:47:59;24.17;;;10.13;;
19623;SDS011;9959;49.798;9.928;2022-11-15T04:50:27;18.98;;;8.68;;
19623;SDS011;9959;49.798;9.928;2022-11-15T04:52:56;20.55;;;9.68;;
19623;SDS011;9959;49.798;9.928;2022-11-15T04:55:25;19.60;;;9.32;;
19623;SDS011;9959;49.798;9.928;2022-11-15T04:57:59;20.92;;;8.85;;
19623;SDS011;9959;49.798;9.928;2022-11-15T05:00:28;19.70;;;9.02;;
19623;SDS011;9959;49.798;9.928;2022-11-15T05:02:57;21.42;;;9.15;;
19623;SDS011;9959;49.798;9.928;2022-11-15T05:05:43;22.88;;;9.15;;
19623;SDS011;9959;49.798;9.928;2022-11-15T05:08:11;17.20;;;8.10;;
19623;SDS011;9959;49.798;9.928;2022-11-15T05:10:40;20.23;;;8.77;;
19623;SDS011;9959;49.798;9.928;2022-11-15T05:13:08;20.15;;;9.00;;
19623;SDS011;9959;49.798;9.928;2022-11-15T05:15:36;18.90;;;9.02;;
19623;SDS011;9959;49.798;9.928;2022-11-15T05:18:03;19.42;;;8.93;;
19623;SDS011;9959;49.798;9.928;2022-11-15T05:20:32;20.88;;;9.82;;
19623;SDS011;9959;49.798;9.928;2022-11-15T05:23:00;17.45;;;8.82;;
19623;SDS011;9959;49.798;9.928;2022-11-15T05:25:28;22.15;;;9.43;;
19623;SDS011;9959;49.798;9.928;2022-11-15T05:27:58;23.33;;;10.50;;
19623;SDS011;9959;49.798;9.928;2022-11-15T05:30:26;25.88;;;10.07;;
19623;SDS011;9959;49.798;9.928;2022-11-15T05:32:54;20.23;;;9.98;;
19623;SDS011;9959;49.798;9.928;2022-11-15T05:35:25;21.30;;;9.88;;
19623;SDS011;9959;49.798;9.928;2022-11-15T05:37:58;22.23;;;9.60;;
19623;SDS011;9959;49.798;9.928;2022-11-15T05:40:26;24.17;;;10.95;;
19623;SDS011;9959;49.798;9.928;2022-11-15T05:42:55;20.38;;;9.25;;
19623;SDS011;9959;49.798;9.928;2022-11-15T05:45:28;19.45;;;9.18;;
19623;SDS011;9959;49.798;9.928;2022-11-15T05:47:56;19.38;;;8.52;;
19623;SDS011;9959;49.798;9.928;2022-11-15T05:50:27;18.58;;;9.18;;
19623;SDS011;9959;49.798;9.928;2022-11-15T05:52:55;22.17;;;8.70;;
19623;SDS011;9959;49.798;9.928;2022-11-15T05:55:30;21.90;;;9.07;;
19623;SDS011;9959;49.798;9.928;2022-11-15T05:58:00;18.60;;;8.85;;
19623;SDS011;9959;49.798;9.928;2022-11-15T06:00:28;21.25;;;10.27;;
19623;SDS011;9959;49.798;9.928;2022-11-15T06:02:56;23.38;;;10.43;;
19623;SDS011;9959;49.798;9.928;2022-11-15T06:05:24;27.35;;;10.60;;
19623;SDS011;9959;49.798;9.928;2022-11-15T06:07:52;19.52;;;9.80;;
19623;SDS011;9959;49.798;9.928;2022-11-15T06:10:24;24.65;;;9.80;;
19623;SDS011;9959;49.798;9.928;2022-11-15T06:12:56;23.80;;;9.63;;
19623;SDS011;9959;49.798;9.928;2022-11-15T06:15:26;18.05;;;9.05;;
19623;SDS011;9959;49.798;9.928;2022-11-15T06:17:55;21.08;;;9.07;;
19623;SDS011;9959;49.798;9.928;2022-11-15T06:20:24;22.88;;;9.75;;
19623;SDS011;9959;49.798;9.928;2022-11-15T06:22:55;20.30;;;9.32;;
19623;SDS011;9959;49.798;9.928;2022-11-15T06:25:24;16.73;;;9.13;;
19623;SDS011;9959;49.798;9.928;2022-11-15T06:27:52;27.45;;;10.20;;
19623;SDS011;9959;49.798;9.928;2022-11-15T06:30:20;23.73;;;10.48;;
19623;SDS011;9959;49.798;9.928;2022-11-15T06:32:50;24.48;;;10.50;;
19623;SDS011;9959;49.798;9.928;2022-11-15T06:35:18;21.80;;;9.93;;
19623;SDS011;9959;49.798;9.928;2022-11-15T06:37:46;24.23;;;11.25;;
19623;SDS011;9959;49.798;9.928;2022-11-15T06:40:15;21.05;;;10.13;;
19623;SDS011;9959;49.798;9.928;2022-11-15T06:42:43;23.45;;;10.38;;
19623;SDS011;9959;49.798;9.928;2022-11-15T06:45:11;20.52;;;10.10;;
19623;SDS011;9959;49.798;9.928;2022-11-15T06:47:43;22.13;;;10.52;;
19623;SDS011;9959;49.798;9.928;2022-11-15T06:50:13;21.92;;;10.10;;
19623;SDS011;9959;49.798;9.928;2022-11-15T06:52:41;18.02;;;9.55;;
19623;SDS011;9959;49.798;9.928;2022-11-15T06:55:09;18.42;;;9.80;;
19623;SDS011;9959;49.798;9.928;2022-11-15T06:57:42;18.00;;;9.65;;
19623;SDS011;9959;49.798;9.928;2022-11-15T07:00:14;15.75;;;8.60;;
19623;SDS011;9959;49.798;9.928;2022-11-15T07:02:43;15.15;;;8.60;;
19623;SDS011;9959;49.798;9.928;2022-11-15T07:05:13;21.08;;;9.20;;
19623;SDS011;9959;49.798;9.928;2022-11-15T07:07:41;18.42;;;9.32;;
19623;SDS011;9959;49.798;9.928;2022-11-15T07:10:09;25.15;;;9.50;;
19623;SDS011;9959;49.798;9.928;2022-11-15T07:12:38;15.75;;;9.10;;
19623;SDS011;9959;49.798;9.928;2022-11-15T07:15:06;20.33;;;10.05;;
19623;SDS011;9959;49.798;9.928;2022-11-15T07:17:34;19.65;;;10.07;;
19623;SDS011;9959;49.798;9.928;2022-11-15T07:20:03;19.73;;;9.73;;
19623;SDS011;9959;49.798;9.928;2022-11-15T07:22:32;17.45;;;8.00;;
19623;SDS011;9959;49.798;9.928;2022-11-15T07:25:00;15.43;;;7.95;;
19623;SDS011;9959;49.798;9.928;2022-11-15T07:27:28;19.38;;;8.27;;
19623;SDS011;9959;49.798;9.928;2022-11-15T07:29:56;17.45;;;8.20;;
19623;SDS011;9959;49.798;9.928;2022-11-15T07:32:24;14.77;;;7.82;;
19623;SDS011;9959;49.798;9.928;2022-11-15T07:34:52;18.83;;;8.10;;
19623;SDS011;9959;49.798;9.928;2022-11-15T07:37:21;15.18;;;7.75;;
19623;SDS011;9959;49.798;9.928;2022-11-15T07:39:50;14.80;;;9.07;;
19623;SDS011;9959;49.798;9.928;2022-11-15T07:42:18;19.38;;;8.68;;
19623;SDS011;9959;49.798;9.928;2022-11-15T07:45:04;19.70;;;10.02;;
19623;SDS011;9959;49.798;9.928;2022-11-15T07:47:32;22.55;;;10.98;;
19623;SDS011;9959;49.798;9.928;2022-11-15T07:50:00;19.10;;;10.20;;
19623;SDS011;9959;49.798;9.928;2022-11-15T07:52:28;33.30;;;11.57;;
19623;SDS011;9959;49.798;9.928;2022-11-15T07:54:57;26.92;;;10.60;;
19623;SDS011;9959;49.798;9.928;2022-11-15T07:57:25;20.63;;;9.57;;
19623;SDS011;9959;49.798;9.928;2022-11-15T07:59:53;29.65;;;11.73;;
19623;SDS011;9959;49.798;9.928;2022-11-15T08:02:21;35.38;;;13.35;;
19623;SDS011;9959;49.798;9.928;2022-11-15T08:04:55;35.92;;;13.38;;
19623;SDS011;9959;49.798;9.928;2022-11-15T08:07:23;31.33;;;11.85;;
19623;SDS011;9959;49.798;9.928;2022-11-15T08:09:51;36.58;;;13.10;;
19623;SDS011;9959;49.798;9.928;2022-11-15T08:12:21;38.50;;;14.13;;
19623;SDS011;9959;49.798;9.928;2022-11-15T08:14:49;35.28;;;14.68;;
19623;SDS011;9959;49.798;9.928;2022-11-15T08:17:16;35.30;;;13.88;;
19623;SDS011;9959;49.798;9.928;2022-11-15T08:19:44;29.48;;;13.25;;
19623;SDS011;9959;49.798;9.928;2022-11-15T08:22:12;28.25;;;11.73;;
19623;SDS011;9959;49.798;9.928;2022-11-15T08:24:40;34.38;;;12.38;;
19623;SDS011;9959;49.798;9.928;2022-11-15T08:27:08;27.77;;;10.88;;
19623;SDS011;9959;49.798;9.928;2022-11-15T08:29:43;26.13;;;10.90;;
19623;SDS011;9959;49.798;9.928;2022-11-15T08:32:12;29.88;;;11.05;;
19623;SDS011;9959;49.798;9.928;2022-11-15T08:34:40;21.88;;;11.48;;
19623;SDS011;9959;49.798;9.928;2022-11-15T08:37:08;25.50;;;11.13;;
19623;SDS011;9959;49.798;9.928;2022-11-15T08:39:36;24.08;;;10.82;;
19623;SDS011;9959;49.798;9.928;2022-11-15T08:42:04;30.48;;;11.30;;
19623;SDS011;9959;49.798;9.928;2022-11-15T08:44:32;19.98;;;10.07;;
19623;SDS011;9959;49.798;9.928;2022-11-15T08:47:01;23.42;;;10.90;;
19623;SDS011;9959;49.798;9.928;2022-11-15T08:49:29;25.70;;;10.38;;
19623;SDS011;9959;49.798;9.928;2022-11-15T08:51:57;18.52;;;9.65;;
19623;SDS011;9959;49.798;9.928;2022-11-15T08:54:25;17.98;;;9.20;;
19623;SDS011;9959;49.798;9.928;2022-11-15T08:56:53;20.90;;;9.88;;
19623;SDS011;9959;49.798;9.928;2022-11-15T08:59:21;19.95;;;10.10;;
19623;SDS011;9959;49.798;9.928;2022-11-15T09:01:49;23.35;;;9.40;;
19623;SDS011;9959;49.798;9.928;2022-11-15T09:04:19;21.77;;;9.63;;
19623;SDS011;9959;49.798;9.928;2022-11-15T09:06:47;17.38;;;8.85;;
19623;SDS011;9959;49.798;9.928;2022-11-15T09:09:15;16.55;;;8.20;;
19623;SDS011;9959;49.798;9.928;2022-11-15T09:11:43;17.13;;;8.40;;
19623;SDS011;9959;49.798;9.928;2022-11-15T09:14:11;18.23;;;8.98;;
19623;SDS011;9959;49.798;9.928;2022-11-15T09:16:39;16.58;;;8.30;;
19623;SDS011;9959;49.798;9.928;2022-11-15T09:19:08;12.60;;;7.50;;
19623;SDS011;9959;49.798;9.928;2022-11-15T09:21:38;20.40;;;8.20;;
19623;SDS011;9959;49.798;9.928;2022-11-15T09:24:06;12.65;;;7.43;;
19623;SDS011;9959;49.798;9.928;2022-11-15T09:26:34;11.68;;;6.70;;
19623;SDS011;9959;49.798;9.928;2022-11-15T09:29:02;18.55;;;7.00;;
19623;SDS011;9959;49.798;9.928;2022-11-15T09:31:30;12.80;;;6.55;;
19623;SDS011;9959;49.798;9.928;2022-11-15T09:33:58;15.07;;;6.90;;
19623;SDS011;9959;49.798;9.928;2022-11-15T09:36:26;14.82;;;6.30;;
19623;SDS011;9959;49.798;9.928;2022-11-15T09:38:56;10.45;;;6.07;;
19623;SDS011;9959;49.798;9.928;2022-11-15T09:44:26;9.95;;;5.93;;
19623;SDS011;9959;49.798;9.928;2022-11-15T09:47:10;13.70;;;6.25;;
19623;SDS011;9959;49.798;9.928;2022-11-15T09:49:58;13.35;;;6.30;;
19623;SDS011;9959;49.798;9.928;2022-11-15T09:52:28;11.25;;;6.80;;
19623;SDS011;9959;49.798;9.928;2022-11-15T09:54:57;14.20;;;7.40;;
19623;SDS011;9959;49.798;9.928;2022-11-15T09:57:30;20.95;;;7.88;;
19623;SDS011;9959;49.798;9.928;2022-11-15T10:00:08;12.73;;;7.38;;
19623;SDS011;9959;49.798;9.928;2022-11-15T10:03:11;15.70;;;7.07;;
19623;SDS011;9959;49.798;9.928;2022-11-15T10:05:41;11.95;;;6.90;;
19623;SDS011;9959;49.798;9.928;2022-11-15T10:08:17;12.10;;;7.35;;
19623;SDS011;9959;49.798;9.928;2022-11-15T10:11:00;16.10;;;7.60;;
19623;SDS011;9959;49.798;9.928;2022-11-15T10:13:51;16.85;;;7.88;;
19623;SDS011;9959;49.798;9.928;2022-11-15T10:16:35;16.63;;;7.40;;
19623;SDS011;9959;49.798;9.928;2022-11-15T10:19:23;17.88;;;7.60;;
19623;SDS011;9959;49.798;9.928;2022-11-15T10:22:00;20.63;;;8.00;;
19623;SDS011;9959;49.798;9.928;2022-11-15T10:24:41;18.15;;;6.88;;
19623;SDS011;9959;49.798;9.928;2022-11-15T10:27:12;12.32;;;6.85;;
19623;SDS011;9959;49.798;9.928;2022-11-15T10:29:45;13.85;;;7.45;;
19623;SDS011;9959;49.798;9.928;2022-11-15T10:32:16;15.88;;;7.97;;
19623;SDS011;9959;49.798;9.928;2022-11-15T10:34:46;11.52;;;5.85;;
19623;SDS011;9959;49.798;9.928;2022-11-15T10:37:14;18.27;;;6.18;;
19623;SDS011;9959;49.798;9.928;2022-11-15T10:40:02;13.00;;;5.80;;
19623;SDS011;9959;49.798;9.928;2022-11-15T10:42:33;12.13;;;6.45;;
19623;SDS011;9959;49.798;9.928;2022-11-15T10:45:01;11.80;;;6.15;;
19623;SDS011;9959;49.798;9.928;2022-11-15T10:47:29;12.18;;;6.10;;
19623;SDS011;9959;49.798;9.928;2022-11-15T10:50:06;13.93;;;6.43;;
19623;SDS011;9959;49.798;9.928;2022-11-15T10:52:52;16.25;;;6.07;;
19623;SDS011;9959;49.798;9.928;2022-11-15T10:55:24;10.20;;;5.45;;
19623;SDS011;9959;49.798;9.928;2022-11-15T10:57:58;8.85;;;4.90;;
19623;SDS011;9959;49.798;9.928;2022-11-15T11:00:34;11.68;;;5.13;;
19623;SDS011;9959;49.798;9.928;2022-11-15T11:03:06;9.32;;;5.68;;
19623;SDS011;9959;49.798;9.928;2022-11-15T11:05:50;12.18;;;5.72;;
19623;SDS011;9959;49.798;9.928;2022-11-15T11:08:31;7.63;;;5.65;;
19623;SDS011;9959;49.798;9.928;2022-11-15T11:11:00;12.50;;;6.13;;
19623;SDS011;9959;49.798;9.928;2022-11-15T11:13:31;13.13;;;5.85;;
19623;SDS011;9959;49.798;9.928;2022-11-15T11:16:17;9.00;;;5.85;;
19623;SDS011;9959;49.798;9.928;2022-11-15T11:18:56;7.95;;;5.53;;
19623;SDS011;9959;49.798;9.928;2022-11-15T11:21:38;13.98;;;6.68;;
19623;SDS011;9959;49.798;9.928;2022-11-15T11:24:14;10.38;;;5.88;;
19623;SDS011;9959;49.798;9.928;2022-11-15T11:26:56;10.48;;;5.78;;
19623;SDS011;9959;49.798;9.928;2022-11-15T11:29:41;11.57;;;5.82;;
19623;SDS011;9959;49.798;9.928;2022-11-15T11:32:24;12.32;;;5.90;;
19623;SDS011;9959;49.798;9.928;2022-11-15T11:35:05;11.10;;;6.00;;
19623;SDS011;9959;49.798;9.928;2022-11-15T11:37:40;10.63;;;5.68;;
19623;SDS011;9959;49.798;9.928;2022-11-15T11:40:18;11.35;;;6.03;;
19623;SDS011;9959;49.798;9.928;2022-11-15T11:42:55;13.80;;;6.25;;
19623;SDS011;9959;49.798;9.928;2022-11-15T11:45:39;11.82;;;6.20;;
19623;SDS011;9959;49.798;9.928;2022-11-15T11:48:20;11.23;;;6.10;;
19623;SDS011;9959;49.798;9.928;2022-11-15T11:51:01;11.35;;;6.15;;
19623;SDS011;9959;49.798;9.928;2022-11-15T11:53:36;10.38;;;6.05;;
19623;SDS011;9959;49.798;9.928;2022-11-15T11:56:12;13.10;;;6.35;;
19623;SDS011;9959;49.798;9.928;2022-11-15T11:58:47;16.15;;;6.55;;
19623;SDS011;9959;49.798;9.928;2022-11-15T12:01:18;10.60;;;5.75;;
19623;SDS011;9959;49.798;9.928;2022-11-15T12:03:52;14.90;;;6.35;;
19623;SDS011;9959;49.798;9.928;2022-11-15T12:06:27;11.38;;;6.03;;
19623;SDS011;9959;49.798;9.928;2022-11-15T12:09:01;14.05;;;6.65;;
19623;SDS011;9959;49.798;9.928;2022-11-15T12:11:36;11.13;;;5.90;;
19623;SDS011;9959;49.798;9.928;2022-11-15T12:14:12;12.93;;;6.13;;
19623;SDS011;9959;49.798;9.928;2022-11-15T12:16:53;11.75;;;7.10;;
19623;SDS011;9959;49.798;9.928;2022-11-15T12:19:21;19.95;;;9.13;;
19623;SDS011;9959;49.798;9.928;2022-11-15T12:21:50;17.40;;;8.68;;
19623;SDS011;9959;49.798;9.928;2022-11-15T12:24:24;18.15;;;9.40;;
19623;SDS011;9959;49.798;9.928;2022-11-15T12:26:57;22.13;;;9.27;;
19623;SDS011;9959;49.798;9.928;2022-11-15T12:29:32;21.50;;;8.50;;
19623;SDS011;9959;49.798;9.928;2022-11-15T12:32:11;21.90;;;9.50;;
19623;SDS011;9959;49.798;9.928;2022-11-15T12:34:46;20.88;;;9.45;;
19623;SDS011;9959;49.798;9.928;2022-11-15T12:37:33;24.60;;;10.13;;
19623;SDS011;9959;49.798;9.928;2022-11-15T12:40:22;16.67;;;9.05;;
19623;SDS011;9959;49.798;9.928;2022-11-15T12:46:08;20.75;;;9.20;;
19623;SDS011;9959;49.798;9.928;2022-11-15T12:54:50;23.15;;;10.82;;
19623;SDS011;9959;49.798;9.928;2022-11-15T12:57:31;15.20;;;9.73;;
19623;SDS011;9959;49.798;9.928;2022-11-15T13:03:17;21.30;;;10.07;;
19623;SDS011;9959;49.798;9.928;2022-11-15T13:05:57;20.58;;;10.02;;
19623;SDS011;9959;49.798;9.928;2022-11-15T13:17:16;21.23;;;8.80;;
19623;SDS011;9959;49.798;9.928;2022-11-15T13:19:52;20.40;;;8.45;;
19623;SDS011;9959;49.798;9.928;2022-11-15T13:22:26;20.35;;;9.30;;
19623;SDS011;9959;49.798;9.928;2022-11-15T13:25:15;17.60;;;8.02;;
19623;SDS011;9959;49.798;9.928;2022-11-15T13:27:47;15.32;;;6.60;;
19623;SDS011;9959;49.798;9.928;2022-11-15T13:30:19;18.08;;;7.60;;
19623;SDS011;9959;49.798;9.928;2022-11-15T13:32:48;17.80;;;7.50;;
19623;SDS011;9959;49.798;9.928;2022-11-15T13:35:20;17.50;;;7.72;;
19623;SDS011;9959;49.798;9.928;2022-11-15T13:37:51;22.73;;;7.75;;
19623;SDS011;9959;49.798;9.928;2022-11-15T13:40:22;13.05;;;6.75;;
19623;SDS011;9959;49.798;9.928;2022-11-15T13:42:56;11.95;;;5.65;;
19623;SDS011;9959;49.798;9.928;2022-11-15T13:45:25;9.25;;;5.28;;
19623;SDS011;9959;49.798;9.928;2022-11-15T13:47:54;12.43;;;7.05;;
19623;SDS011;9959;49.798;9.928;2022-11-15T13:50:24;13.10;;;5.93;;
19623;SDS011;9959;49.798;9.928;2022-11-15T13:52:58;10.73;;;5.50;;
19623;SDS011;9959;49.798;9.928;2022-11-15T13:55:30;13.63;;;5.93;;
19623;SDS011;9959;49.798;9.928;2022-11-15T13:58:00;13.25;;;5.95;;
19623;SDS011;9959;49.798;9.928;2022-11-15T14:00:33;8.40;;;5.60;;
19623;SDS011;9959;49.798;9.928;2022-11-15T14:03:05;12.60;;;6.40;;
19623;SDS011;9959;49.798;9.928;2022-11-15T14:05:40;17.38;;;7.07;;
19623;SDS011;9959;49.798;9.928;2022-11-15T14:08:21;13.23;;;6.95;;
19623;SDS011;9959;49.798;9.928;2022-11-15T14:11:05;18.73;;;6.55;;
19623;SDS011;9959;49.798;9.928;2022-11-15T14:13:34;12.35;;;6.32;;
19623;SDS011;9959;49.798;9.928;2022-11-15T14:16:12;14.27;;;7.45;;
19623;SDS011;9959;49.798;9.928;2022-11-15T14:18:46;18.00;;;6.82;;
19623;SDS011;9959;49.798;9.928;2022-11-15T14:21:16;15.95;;;6.75;;
19623;SDS011;9959;49.798;9.928;2022-11-15T14:23:46;11.32;;;6.70;;
19623;SDS011;9959;49.798;9.928;2022-11-15T14:26:28;9.93;;;6.80;;
19623;SDS011;9959;49.798;9.928;2022-11-15T14:29:00;12.65;;;6.63;;
19623;SDS011;9959;49.798;9.928;2022-11-15T14:31:54;14.85;;;6.93;;
19623;SDS011;9959;49.798;9.928;2022-11-15T14:34:39;13.00;;;6.78;;
19623;SDS011;9959;49.798;9.928;2022-11-15T14:37:09;13.13;;;7.05;;
19623;SDS011;9959;49.798;9.928;2022-11-15T14:39:48;12.50;;;7.40;;
19623;SDS011;9959;49.798;9.928;2022-11-15T14:42:17;16.77;;;7.88;;
19623;SDS011;9959;49.798;9.928;2022-11-15T14:44:46;11.98;;;6.95;;
19623;SDS011;9959;49.798;9.928;2022-11-15T14:47:14;11.75;;;7.63;;
19623;SDS011;9959;49.798;9.928;2022-11-15T14:49:42;15.35;;;7.95;;
19623;SDS011;9959;49.798;9.928;2022-11-15T14:52:16;15.82;;;7.47;;
19623;SDS011;9959;49.798;9.928;2022-11-15T14:54:59;15.93;;;7.63;;
19623;SDS011;9959;49.798;9.928;2022-11-15T14:57:28;14.35;;;7.40;;
19623;SDS011;9959;49.798;9.928;2022-11-15T14:59:56;11.93;;;6.75;;
19623;SDS011;9959;49.798;9.928;2022-11-15T15:02:25;14.10;;;7.05;;
19623;SDS011;9959;49.798;9.928;2022-11-15T15:04:54;16.08;;;7.20;;
19623;SDS011;9959;49.798;9.928;2022-11-15T15:07:27;14.70;;;7.53;;
19623;SDS011;9959;49.798;9.928;2022-11-15T15:09:55;19.27;;;8.25;;
19623;SDS011;9959;49.798;9.928;2022-11-15T15:12:44;16.92;;;7.65;;
19623;SDS011;9959;49.798;9.928;2022-11-15T15:15:13;18.48;;;7.88;;
19623;SDS011;9959;49.798;9.928;2022-11-15T15:17:43;16.02;;;7.18;;
19623;SDS011;9959;49.798;9.928;2022-11-15T15:20:11;19.08;;;7.25;;
19623;SDS011;9959;49.798;9.928;2022-11-15T15:22:39;13.88;;;6.72;;
19623;SDS011;9959;49.798;9.928;2022-11-15T15:27:59;13.60;;;6.80;;
19623;SDS011;9959;49.798;9.928;2022-11-15T15:30:29;13.13;;;6.93;;
19623;SDS011;9959;49.798;9.928;2022-11-15T15:32:58;16.15;;;7.35;;
19623;SDS011;9959;49.798;9.928;2022-11-15T15:35:27;14.13;;;7.47;;
19623;SDS011;9959;49.798;9.928;2022-11-15T15:37:57;11.50;;;7.75;;
19623;SDS011;9959;49.798;9.928;2022-11-15T15:40:27;15.13;;;7.15;;
19623;SDS011;9959;49.798;9.928;2022-11-15T15:42:56;15.65;;;7.38;;
19623;SDS011;9959;49.798;9.928;2022-11-15T15:45:26;19.05;;;7.90;;